Buckhorn, Canada
Current Conditions -  °F | °C
As of 7:00 AM on Wednesday 26 Nov 2014 (Local Time) from CYPQ Reporting Station
Overcast Overcast  
Wind Chill: 30°   Ceiling: 2900
Heat Index: 30°   Visibility: 9mi
Dew Point: 27°   Wind: 2mph
Humidity: 86%   Direction: 40°NE
Pressure: 30.2"   Gusts: NA
Location:  44.55°N, 78.33°W
Report Text: CYPQ 261200Z AUTO 04002KT 9SM OVC029 M01/M03 A3020 RMK PRESFR SLP236
Loading
Personal Weather Stations






























Interactive Weather Map New forecast layout! Learn more

10-Day Weather Forecast

Advertisements
Track Severe Weather on mobile